Weather reports worldwide

Advertisment
Hallands Vaderö, Sweden (2605): temperature & dewpoint: 27.05.2020 23:00:00 - 02.06.2020 23:00:00 (CEST)Hallands Vaderö, Sweden (2605): wind speed & gusts: 27.05.2020 23:00:00 - 02.06.2020 23:00:00 (CEST)Hallands Vaderö, Sweden (2605): wind direction: 27.05.2020 23:00:00 - 02.06.2020 23:00:00 (CEST)Hallands Vaderö, Sweden (2605): visibility: 27.05.2020 23:00:00 - 02.06.2020 23:00:00 (CEST)Hallands Vaderö, Sweden (2605): precipitation: 27.05.2020 23:00:00 - 02.06.2020 23:00:00 (CEST)
Date & Time tt [°C] td [°C] ff [km/h] ff [kn] fx [km/h] fx [kn] dd vv [km] rr [mm]
02.06.2020 23:00:00 - - - - - - - - -
02.06.2020 22:00:00 - - - - - - - - -
02.06.2020 21:00:00 - - - - - - - - -
02.06.2020 20:00:00 - - - - - - - - -
02.06.2020 19:00:00 - - - - - - - - -
02.06.2020 18:00:00 18,5 12,0 18 10 24 13 NW 39 0,0
02.06.2020 17:00:00 18,9 12,6 19 10 24 13 NW 42 0,0
02.06.2020 16:00:00 - - - - 24 13 - - -
02.06.2020 15:00:00 - - - - 22 12 - - -
02.06.2020 14:00:00 19,4 13,6 17 9 26 14 NW 35 0,0
02.06.2020 13:00:00 19,2 12,7 17 9 26 14 NW 33 0,0
02.06.2020 12:00:00 - - - - 24 13 - - -
02.06.2020 11:00:00 - - - - 26 14 - - -
02.06.2020 10:00:00 16,9 13,2 9 5 14 8 NW 37 0,0
02.06.2020 09:00:00 16,6 13,7 11 6 14 8 NNW 30 0,0
02.06.2020 08:00:00 16,1 13,4 10 5 14 8 NW 29 0,0
02.06.2020 07:00:00 15,3 13,7 6 3 11 6 NW 35 0,0
02.06.2020 06:00:00 14,6 13,5 9 5 19 10 NNW 33 0,0
02.06.2020 05:00:00 14,0 12,8 13 7 19 10 NW 42 0,0
02.06.2020 04:00:00 14,0 12,4 13 7 17 9 WNW 44 0,0
02.06.2020 03:00:00 13,3 11,0 6 3 22 12 NNE 37 0,0
02.06.2020 02:00:00 15,0 10,8 20 11 37 20 N 38 0,0
02.06.2020 01:00:00 15,3 10,7 28 15 38 20 NNW 41 0,0
02.06.2020 00:00:00 15,4 11,2 24 13 34 19 NW 44 0,0
01.06.2020 23:00:00 15,6 11,0 23 13 31 17 NW 50 0,0
01.06.2020 22:00:00 15,3 11,7 21 11 24 13 NW 50 0,0
01.06.2020 21:00:00 16,0 11,6 17 9 20 11 NW 48 0,0
01.06.2020 20:00:00 - - - - 16 9 - - -
01.06.2020 19:00:00 - - - - 14 7 - - -
01.06.2020 18:00:00 - - - - - - - - -
01.06.2020 17:00:00 - - - - - - - - -
01.06.2020 16:00:00 18,8 11,8 15 8 22 12 WNW 36 0,0
01.06.2020 15:00:00 19,0 11,8 18 10 23 13 WNW 41 0,0
01.06.2020 14:00:00 19,2 11,5 13 7 17 9 W 33 0,0
01.06.2020 13:00:00 18,2 10,8 8 4 10 6 W 43 0,0
01.06.2020 12:00:00 17,7 8,3 7 4 10 6 W 40 0,0
01.06.2020 11:00:00 - - - - 10 5 - - -
01.06.2020 10:00:00 16,0 8,2 9 5 14 8 N 50 0,0
01.06.2020 09:00:00 15,4 9,3 10 5 13 7 N 37 0,0
01.06.2020 08:00:00 14,6 9,4 9 5 11 6 N 36 0,0
01.06.2020 07:00:00 14,3 8,7 6 4 8 5 NE 50 0,0
01.06.2020 06:00:00 13,3 10,3 3 1 13 7 SE 50 0,0
01.06.2020 05:00:00 11,9 10,2 10 5 12 6 NNE 48 0,0
01.06.2020 04:00:00 12,3 9,3 5 3 7 4 N 50 0,0
01.06.2020 03:00:00 12,4 5,1 0 0 9 5 N 50 0,0
01.06.2020 02:00:00 13,3 5,9 8 4 13 7 SE 50 0,0
01.06.2020 01:00:00 15,3 1,8 10 5 16 9 ESE 50 0,0
01.06.2020 00:00:00 15,5 3,0 10 6 19 11 ESE 50 0,0
31.05.2020 23:00:00 16,3 4,7 14 8 20 11 E 50 0,0
31.05.2020 22:00:00 15,6 9,0 10 5 14 7 ENE 50 0,0
31.05.2020 21:00:00 16,0 12,0 9 5 16 8 NNE 47 0,0
31.05.2020 20:00:00 16,3 12,8 13 7 22 12 N 48 0,0
31.05.2020 19:00:00 16,9 12,2 17 9 30 16 NNW 34 0,0
31.05.2020 18:00:00 17,5 12,0 20 11 29 16 NNW 35 0,0
31.05.2020 17:00:00 18,0 11,8 23 12 30 16 NNW 25 0,0
31.05.2020 16:00:00 18,3 11,8 22 12 29 16 NNW 37 0,0
31.05.2020 15:00:00 18,3 11,6 21 12 28 15 NW 30 0,0
31.05.2020 14:00:00 18,0 12,4 18 10 25 13 NW 30 0,0
31.05.2020 13:00:00 18,1 12,3 18 10 24 13 NW 43 0,0
31.05.2020 12:00:00 17,5 12,2 11 6 19 11 NW 36 0,0
31.05.2020 11:00:00 16,1 10,8 9 5 14 8 NNW 33 0,0
31.05.2020 10:00:00 15,2 8,2 13 7 23 13 NNE 36 0,0
31.05.2020 09:00:00 14,9 7,7 18 10 26 14 NE 35 0,0
31.05.2020 08:00:00 13,5 7,5 18 10 27 15 NE 40 0,0
31.05.2020 07:00:00 12,7 7,8 19 11 28 15 NE 46 0,0
31.05.2020 06:00:00 12,2 8,3 13 7 22 12 ENE 50 0,0
31.05.2020 05:00:00 - - - - 19 10 - - -
31.05.2020 04:00:00 11,9 9,5 5 3 14 8 NE 49 0,0
31.05.2020 03:00:00 12,0 9,4 6 3 9 5 NE 50 0,0
31.05.2020 02:00:00 12,1 9,3 8 4 10 5 ENE 50 0,0
31.05.2020 01:00:00 11,5 6,2 5 3 8 4 NE 50 0,0
31.05.2020 00:00:00 11,4 6,7 3 2 10 6 SSE 50 0,0
30.05.2020 23:00:00 12,5 6,6 9 5 16 9 SE 48 0,0
30.05.2020 22:00:00 13,8 8,0 10 6 17 9 SE 46 0,0
30.05.2020 21:00:00 17,1 6,3 14 7 24 13 E 49 0,0
30.05.2020 20:00:00 17,6 9,7 16 9 23 12 ENE 44 0,0
30.05.2020 19:00:00 16,9 11,8 5 3 13 7 N 34 0,0
30.05.2020 18:00:00 16,8 12,1 8 5 13 7 NNW 36 0,0
30.05.2020 17:00:00 17,3 10,9 11 6 15 8 NW 35 0,0
30.05.2020 16:00:00 18,3 10,4 10 5 14 8 NW 27 0,0
30.05.2020 15:00:00 17,4 10,5 10 5 13 7 NW 34 0,0
30.05.2020 14:00:00 16,3 10,6 8 4 21 12 NNW 34 0,0
30.05.2020 13:00:00 16,3 10,8 16 8 22 12 NNW 32 0,0
30.05.2020 12:00:00 16,5 11,2 11 6 15 8 NNW 22 0,0
30.05.2020 11:00:00 15,0 10,0 5 3 14 7 N 23 0,0
30.05.2020 10:00:00 15,2 10,6 10 5 15 8 NE 27 0,0
30.05.2020 09:00:00 14,5 10,5 9 5 16 9 ENE 25 0,0
30.05.2020 08:00:00 12,1 10,2 13 7 17 9 ENE 29 0,0
30.05.2020 07:00:00 11,8 11,0 13 7 18 10 NE 19 0,0
30.05.2020 06:00:00 10,8 10,8 5 3 13 7 ESE 8 0,0
30.05.2020 05:00:00 9,2 9,1 10 5 14 8 SSE 7 0,0
30.05.2020 04:00:00 10,1 9,6 11 6 13 7 SE 7 0,0
30.05.2020 03:00:00 11,8 10,5 3 2 11 6 WNW 35 0,0
30.05.2020 02:00:00 12,0 10,9 6 3 10 6 W 34 0,0
30.05.2020 01:00:00 12,0 10,6 6 3 11 6 W 34 0,0
30.05.2020 00:00:00 12,4 10,1 10 5 17 9 W 33 0,0
29.05.2020 23:00:00 12,3 10,5 9 5 12 7 WNW 23 0,0
29.05.2020 22:00:00 12,3 9,9 8 4 14 8 WNW 24 0,0
29.05.2020 21:00:00 13,2 10,2 10 6 19 10 NW 23 0,0
29.05.2020 20:00:00 13,6 10,4 14 8 23 12 NW 24 0,0
29.05.2020 19:00:00 14,3 9,1 15 8 24 13 NNW 26 0,0
29.05.2020 18:00:00 15,1 9,0 19 10 27 14 NW 21 0,0
29.05.2020 17:00:00 15,3 8,7 20 11 26 14 NW 29 0,0
29.05.2020 16:00:00 15,2 7,5 17 9 24 13 WNW 32 0,0
29.05.2020 15:00:00 15,7 8,9 16 9 24 13 NW 27 0,0
29.05.2020 14:00:00 15,2 8,4 16 9 23 12 WNW 34 0,0
29.05.2020 13:00:00 14,4 8,1 14 8 18 10 NW 38 0,0
29.05.2020 12:00:00 15,4 8,4 9 5 14 8 NW 33 0,0
29.05.2020 11:00:00 14,6 8,1 9 5 13 7 WNW 32 0,0
29.05.2020 10:00:00 13,7 7,5 8 5 12 7 NNW 33 0,0
29.05.2020 09:00:00 13,2 8,3 10 5 15 8 N 28 0,0
29.05.2020 08:00:00 12,7 9,2 11 6 17 9 NNE 35 0,0
29.05.2020 07:00:00 12,5 10,2 10 5 14 8 NNE 31 0,0
29.05.2020 06:00:00 11,7 9,3 11 6 16 9 N 45 0,0
29.05.2020 05:00:00 11,2 9,1 12 6 17 9 N 43 0,0
29.05.2020 04:00:00 11,0 8,9 12 7 16 8 NNW 42 0,0
29.05.2020 03:00:00 10,7 9,3 10 5 13 7 NW 50 0,0
29.05.2020 02:00:00 10,8 8,9 8 5 12 6 NW 49 0,0
29.05.2020 01:00:00 11,0 9,3 8 5 13 7 WNW 47 0,0
29.05.2020 00:00:00 - - - - 12 7 - - -
28.05.2020 23:00:00 - - - - 11 6 - - -
28.05.2020 22:00:00 11,3 8,5 8 4 10 6 NW 46 0,0
28.05.2020 21:00:00 12,7 8,6 7 4 11 6 WNW 44 0,0
28.05.2020 20:00:00 13,8 8,8 9 5 20 11 NW 39 0,0
28.05.2020 19:00:00 13,9 8,9 14 8 22 12 NNW 36 0,0
28.05.2020 18:00:00 14,3 8,9 18 10 27 15 NW 30 0,0
28.05.2020 17:00:00 14,5 9,6 21 11 29 15 NW 32 0,0
28.05.2020 16:00:00 14,8 9,2 22 12 31 17 NW 28 0,0
28.05.2020 15:00:00 15,6 9,9 21 11 29 16 NW 22 0,0
28.05.2020 14:00:00 14,9 9,5 21 11 29 16 NW 24 0,0
28.05.2020 13:00:00 15,0 10,4 18 10 26 14 NW 23 0,0
28.05.2020 12:00:00 14,8 10,2 21 11 27 15 NW 24 0,0
28.05.2020 11:00:00 - - - - 21 12 - - -
28.05.2020 10:00:00 14,6 10,0 13 7 18 10 NNW 20 0,0
28.05.2020 09:00:00 13,5 9,0 11 6 18 10 N 25 0,0
28.05.2020 08:00:00 13,3 10,1 13 7 21 11 N 27 0,0
28.05.2020 07:00:00 12,7 10,6 17 9 26 14 N 15 0,0
28.05.2020 06:00:00 12,1 10,0 22 12 32 18 NNW 15 0,0
28.05.2020 05:00:00 11,8 9,8 23 12 35 19 N 15 0,0
28.05.2020 04:00:00 11,7 9,9 23 12 31 17 NNW 11 0,0
28.05.2020 03:00:00 11,6 10,0 24 13 33 18 NW 9 0,0
28.05.2020 02:00:00 11,4 9,8 26 14 37 20 NW 9 0,0
28.05.2020 01:00:00 11,4 9,5 27 15 39 21 NW 9 0,0
28.05.2020 00:00:00 - - - - 41 22 - - -
27.05.2020 23:00:00 12,1 9,2 28 15 38 21 NW 13 0,0

tt = temperature
td = dewpoint
ff = wind speed
fx = gusts
dd = wind direction
vv = visibility
rr = precipitation

Next stations